sensor_id;sensor_type;location;lat;lon;timestamp;P1;durP1;ratioP1;P2;durP2;ratioP2
3613;SDS011;1821;50.936;6.854;2023-05-10T00:00:39;11.10;;;9.35;;
3613;SDS011;1821;50.936;6.854;2023-05-10T00:01:21;10.00;;;9.00;;
3613;SDS011;1821;50.936;6.854;2023-05-10T00:02:03;10.35;;;9.13;;
3613;SDS011;1821;50.936;6.854;2023-05-10T00:02:45;10.15;;;9.15;;
3613;SDS011;1821;50.936;6.854;2023-05-10T00:03:27;9.68;;;8.77;;
3613;SDS011;1821;50.936;6.854;2023-05-10T00:04:09;10.30;;;9.20;;
3613;SDS011;1821;50.936;6.854;2023-05-10T00:04:51;11.18;;;9.00;;
3613;SDS011;1821;50.936;6.854;2023-05-10T00:05:33;11.50;;;9.38;;
3613;SDS011;1821;50.936;6.854;2023-05-10T00:06:15;10.65;;;9.55;;
3613;SDS011;1821;50.936;6.854;2023-05-10T00:06:57;10.25;;;9.00;;
3613;SDS011;1821;50.936;6.854;2023-05-10T00:07:39;10.15;;;9.02;;
3613;SDS011;1821;50.936;6.854;2023-05-10T00:08:21;11.10;;;9.45;;
3613;SDS011;1821;50.936;6.854;2023-05-10T00:09:03;10.50;;;9.40;;
3613;SDS011;1821;50.936;6.854;2023-05-10T00:09:45;10.40;;;9.30;;
3613;SDS011;1821;50.936;6.854;2023-05-10T00:10:27;11.00;;;9.40;;
3613;SDS011;1821;50.936;6.854;2023-05-10T00:11:09;11.30;;;10.20;;
3613;SDS011;1821;50.936;6.854;2023-05-10T00:11:51;11.68;;;10.23;;
3613;SDS011;1821;50.936;6.854;2023-05-10T00:12:32;9.80;;;8.80;;
3613;SDS011;1821;50.936;6.854;2023-05-10T00:13:14;10.32;;;9.30;;
3613;SDS011;1821;50.936;6.854;2023-05-10T00:13:56;13.48;;;10.50;;
3613;SDS011;1821;50.936;6.854;2023-05-10T00:14:38;11.15;;;9.95;;
3613;SDS011;1821;50.936;6.854;2023-05-10T00:15:20;11.68;;;10.10;;
3613;SDS011;1821;50.936;6.854;2023-05-10T00:16:02;10.73;;;9.63;;
3613;SDS011;1821;50.936;6.854;2023-05-10T00:16:44;11.30;;;9.80;;
3613;SDS011;1821;50.936;6.854;2023-05-10T00:17:26;11.20;;;10.00;;
3613;SDS011;1821;50.936;6.854;2023-05-10T00:18:08;11.48;;;9.95;;
3613;SDS011;1821;50.936;6.854;2023-05-10T00:18:50;12.15;;;10.38;;
3613;SDS011;1821;50.936;6.854;2023-05-10T00:19:32;11.82;;;10.02;;
3613;SDS011;1821;50.936;6.854;2023-05-10T00:20:14;12.60;;;10.80;;
3613;SDS011;1821;50.936;6.854;2023-05-10T00:20:56;13.27;;;11.15;;
3613;SDS011;1821;50.936;6.854;2023-05-10T00:21:38;14.20;;;11.40;;
3613;SDS011;1821;50.936;6.854;2023-05-10T00:22:20;13.13;;;10.77;;
3613;SDS011;1821;50.936;6.854;2023-05-10T00:23:02;11.30;;;9.43;;
3613;SDS011;1821;50.936;6.854;2023-05-10T00:23:44;11.65;;;9.57;;
3613;SDS011;1821;50.936;6.854;2023-05-10T00:24:26;11.65;;;9.75;;
3613;SDS011;1821;50.936;6.854;2023-05-10T00:25:08;11.75;;;10.55;;
3613;SDS011;1821;50.936;6.854;2023-05-10T00:25:51;11.55;;;10.35;;
3613;SDS011;1821;50.936;6.854;2023-05-10T00:26:33;13.98;;;10.85;;
3613;SDS011;1821;50.936;6.854;2023-05-10T00:27:17;13.20;;;11.55;;
3613;SDS011;1821;50.936;6.854;2023-05-10T00:27:59;12.90;;;11.50;;
3613;SDS011;1821;50.936;6.854;2023-05-10T00:28:42;14.40;;;11.00;;
3613;SDS011;1821;50.936;6.854;2023-05-10T00:29:24;15.00;;;11.60;;
3613;SDS011;1821;50.936;6.854;2023-05-10T00:30:06;12.85;;;11.00;;
3613;SDS011;1821;50.936;6.854;2023-05-10T00:30:49;12.10;;;10.32;;
3613;SDS011;1821;50.936;6.854;2023-05-10T00:31:33;13.20;;;10.93;;
3613;SDS011;1821;50.936;6.854;2023-05-10T00:32:14;12.40;;;10.60;;
3613;SDS011;1821;50.936;6.854;2023-05-10T00:32:57;15.32;;;11.43;;
3613;SDS011;1821;50.936;6.854;2023-05-10T00:33:39;13.43;;;11.40;;
3613;SDS011;1821;50.936;6.854;2023-05-10T00:34:21;13.23;;;11.13;;
3613;SDS011;1821;50.936;6.854;2023-05-10T00:35:03;13.38;;;10.65;;
3613;SDS011;1821;50.936;6.854;2023-05-10T00:35:47;11.85;;;9.93;;
3613;SDS011;1821;50.936;6.854;2023-05-10T00:36:29;12.68;;;11.00;;
3613;SDS011;1821;50.936;6.854;2023-05-10T00:37:12;12.63;;;10.88;;
3613;SDS011;1821;50.936;6.854;2023-05-10T00:37:54;13.07;;;10.93;;
3613;SDS011;1821;50.936;6.854;2023-05-10T00:38:36;13.27;;;11.10;;
3613;SDS011;1821;50.936;6.854;2023-05-10T00:39:18;12.73;;;10.65;;
3613;SDS011;1821;50.936;6.854;2023-05-10T00:39:59;12.57;;;10.80;;
3613;SDS011;1821;50.936;6.854;2023-05-10T00:40:41;12.50;;;10.32;;
3613;SDS011;1821;50.936;6.854;2023-05-10T00:41:23;13.25;;;10.82;;
3613;SDS011;1821;50.936;6.854;2023-05-10T00:42:07;13.20;;;11.40;;
3613;SDS011;1821;50.936;6.854;2023-05-10T00:42:49;12.70;;;11.00;;
3613;SDS011;1821;50.936;6.854;2023-05-10T00:43:31;13.85;;;12.07;;
3613;SDS011;1821;50.936;6.854;2023-05-10T00:44:13;12.77;;;11.45;;
3613;SDS011;1821;50.936;6.854;2023-05-10T00:44:55;12.43;;;11.15;;
3613;SDS011;1821;50.936;6.854;2023-05-10T00:45:37;14.30;;;10.90;;
3613;SDS011;1821;50.936;6.854;2023-05-10T00:46:22;13.30;;;10.98;;
3613;SDS011;1821;50.936;6.854;2023-05-10T00:47:04;14.60;;;11.65;;
3613;SDS011;1821;50.936;6.854;2023-05-10T00:47:46;13.05;;;11.63;;
3613;SDS011;1821;50.936;6.854;2023-05-10T00:48:28;12.75;;;10.95;;
3613;SDS011;1821;50.936;6.854;2023-05-10T00:49:13;14.60;;;11.70;;
3613;SDS011;1821;50.936;6.854;2023-05-10T00:49:55;13.70;;;11.55;;
3613;SDS011;1821;50.936;6.854;2023-05-10T00:50:38;12.93;;;11.53;;
3613;SDS011;1821;50.936;6.854;2023-05-10T00:51:21;13.57;;;11.88;;
3613;SDS011;1821;50.936;6.854;2023-05-10T00:52:03;11.98;;;10.45;;
3613;SDS011;1821;50.936;6.854;2023-05-10T00:52:45;12.10;;;10.40;;
3613;SDS011;1821;50.936;6.854;2023-05-10T00:53:27;14.75;;;11.50;;
3613;SDS011;1821;50.936;6.854;2023-05-10T00:54:11;14.23;;;11.40;;
3613;SDS011;1821;50.936;6.854;2023-05-10T00:54:55;14.07;;;11.57;;
3613;SDS011;1821;50.936;6.854;2023-05-10T00:55:38;12.43;;;10.93;;
3613;SDS011;1821;50.936;6.854;2023-05-10T00:56:20;13.27;;;11.05;;
3613;SDS011;1821;50.936;6.854;2023-05-10T00:57:04;12.00;;;10.20;;
3613;SDS011;1821;50.936;6.854;2023-05-10T00:57:48;12.48;;;10.57;;
3613;SDS011;1821;50.936;6.854;2023-05-10T00:58:29;14.13;;;11.40;;
3613;SDS011;1821;50.936;6.854;2023-05-10T00:59:12;13.90;;;11.50;;
3613;SDS011;1821;50.936;6.854;2023-05-10T00:59:54;14.13;;;11.75;;
3613;SDS011;1821;50.936;6.854;2023-05-10T01:00:38;14.45;;;11.60;;
3613;SDS011;1821;50.936;6.854;2023-05-10T01:01:23;12.90;;;11.20;;
3613;SDS011;1821;50.936;6.854;2023-05-10T01:02:08;15.70;;;12.27;;
3613;SDS011;1821;50.936;6.854;2023-05-10T01:02:50;16.23;;;11.80;;
3613;SDS011;1821;50.936;6.854;2023-05-10T01:03:32;14.07;;;12.13;;
3613;SDS011;1821;50.936;6.854;2023-05-10T01:04:14;17.08;;;12.05;;
3613;SDS011;1821;50.936;6.854;2023-05-10T01:04:57;16.67;;;11.30;;
3613;SDS011;1821;50.936;6.854;2023-05-10T01:05:39;13.43;;;11.85;;
3613;SDS011;1821;50.936;6.854;2023-05-10T01:06:23;13.65;;;11.32;;
3613;SDS011;1821;50.936;6.854;2023-05-10T01:07:05;16.55;;;12.45;;
3613;SDS011;1821;50.936;6.854;2023-05-10T01:07:47;14.48;;;12.00;;
3613;SDS011;1821;50.936;6.854;2023-05-10T01:08:29;16.02;;;12.20;;
3613;SDS011;1821;50.936;6.854;2023-05-10T01:09:11;17.75;;;12.25;;
3613;SDS011;1821;50.936;6.854;2023-05-10T01:09:53;15.02;;;11.50;;
3613;SDS011;1821;50.936;6.854;2023-05-10T01:10:35;15.07;;;11.35;;
3613;SDS011;1821;50.936;6.854;2023-05-10T01:11:17;14.88;;;11.27;;
3613;SDS011;1821;50.936;6.854;2023-05-10T01:11:59;13.30;;;10.73;;
3613;SDS011;1821;50.936;6.854;2023-05-10T01:12:43;12.43;;;11.13;;
3613;SDS011;1821;50.936;6.854;2023-05-10T01:13:31;13.35;;;11.40;;
3613;SDS011;1821;50.936;6.854;2023-05-10T01:14:16;13.13;;;11.15;;
3613;SDS011;1821;50.936;6.854;2023-05-10T01:15:00;14.77;;;11.45;;
3613;SDS011;1821;50.936;6.854;2023-05-10T01:15:42;15.90;;;12.13;;
3613;SDS011;1821;50.936;6.854;2023-05-10T01:16:26;14.20;;;11.30;;
3613;SDS011;1821;50.936;6.854;2023-05-10T01:17:08;13.48;;;10.95;;
3613;SDS011;1821;50.936;6.854;2023-05-10T01:17:52;13.27;;;11.02;;
3613;SDS011;1821;50.936;6.854;2023-05-10T01:18:38;12.55;;;11.20;;
3613;SDS011;1821;50.936;6.854;2023-05-10T01:20:05;13.40;;;10.43;;
3613;SDS011;1821;50.936;6.854;2023-05-10T01:20:52;12.70;;;11.02;;
3613;SDS011;1821;50.936;6.854;2023-05-10T01:22:05;13.10;;;10.27;;
3613;SDS011;1821;50.936;6.854;2023-05-10T01:23:31;13.50;;;10.70;;
3613;SDS011;1821;50.936;6.854;2023-05-10T01:25:51;15.95;;;11.00;;
3613;SDS011;1821;50.936;6.854;2023-05-10T01:32:25;14.93;;;11.60;;
3613;SDS011;1821;50.936;6.854;2023-05-10T01:34:16;12.57;;;10.50;;
3613;SDS011;1821;50.936;6.854;2023-05-10T01:35:12;12.90;;;9.73;;
3613;SDS011;1821;50.936;6.854;2023-05-10T01:36:30;12.30;;;10.20;;
3613;SDS011;1821;50.936;6.854;2023-05-10T01:37:21;11.45;;;9.90;;
3613;SDS011;1821;50.936;6.854;2023-05-10T01:38:22;11.25;;;9.85;;
3613;SDS011;1821;50.936;6.854;2023-05-10T01:39:25;10.90;;;9.68;;
3613;SDS011;1821;50.936;6.854;2023-05-10T01:40:40;12.93;;;10.48;;
3613;SDS011;1821;50.936;6.854;2023-05-10T01:42:14;12.05;;;10.05;;
3613;SDS011;1821;50.936;6.854;2023-05-10T01:43:02;9.88;;;8.85;;
3613;SDS011;1821;50.936;6.854;2023-05-10T01:45:05;12.45;;;10.13;;
3613;SDS011;1821;50.936;6.854;2023-05-10T01:46:10;12.70;;;10.25;;
3613;SDS011;1821;50.936;6.854;2023-05-10T01:47:05;13.10;;;10.25;;
3613;SDS011;1821;50.936;6.854;2023-05-10T01:47:54;11.88;;;9.57;;
3613;SDS011;1821;50.936;6.854;2023-05-10T01:48:47;14.07;;;10.45;;
3613;SDS011;1821;50.936;6.854;2023-05-10T01:49:30;12.95;;;11.23;;
3613;SDS011;1821;50.936;6.854;2023-05-10T01:50:18;12.25;;;10.25;;
3613;SDS011;1821;50.936;6.854;2023-05-10T01:51:05;12.48;;;10.00;;
3613;SDS011;1821;50.936;6.854;2023-05-10T01:51:50;11.73;;;10.45;;
3613;SDS011;1821;50.936;6.854;2023-05-10T01:52:40;11.27;;;9.45;;
3613;SDS011;1821;50.936;6.854;2023-05-10T01:53:25;12.05;;;9.90;;
3613;SDS011;1821;50.936;6.854;2023-05-10T01:54:09;12.75;;;10.70;;
3613;SDS011;1821;50.936;6.854;2023-05-10T01:54:59;12.13;;;10.50;;
3613;SDS011;1821;50.936;6.854;2023-05-10T01:55:45;11.55;;;10.05;;
3613;SDS011;1821;50.936;6.854;2023-05-10T01:56:30;12.73;;;10.98;;
3613;SDS011;1821;50.936;6.854;2023-05-10T01:57:14;14.25;;;11.50;;
3613;SDS011;1821;50.936;6.854;2023-05-10T01:58:09;14.68;;;11.25;;
3613;SDS011;1821;50.936;6.854;2023-05-10T01:58:54;13.05;;;10.90;;
3613;SDS011;1821;50.936;6.854;2023-05-10T01:59:37;13.65;;;11.20;;
3613;SDS011;1821;50.936;6.854;2023-05-10T02:00:22;15.27;;;10.52;;
3613;SDS011;1821;50.936;6.854;2023-05-10T02:01:05;15.52;;;11.15;;
3613;SDS011;1821;50.936;6.854;2023-05-10T02:01:49;15.88;;;11.90;;
3613;SDS011;1821;50.936;6.854;2023-05-10T02:02:35;14.02;;;11.35;;
3613;SDS011;1821;50.936;6.854;2023-05-10T02:03:20;13.52;;;10.70;;
3613;SDS011;1821;50.936;6.854;2023-05-10T02:04:04;16.05;;;11.35;;
3613;SDS011;1821;50.936;6.854;2023-05-10T02:04:50;16.63;;;11.50;;
3613;SDS011;1821;50.936;6.854;2023-05-10T02:05:33;15.30;;;11.75;;
3613;SDS011;1821;50.936;6.854;2023-05-10T02:06:16;15.07;;;11.57;;
3613;SDS011;1821;50.936;6.854;2023-05-10T02:07:03;15.73;;;11.93;;
3613;SDS011;1821;50.936;6.854;2023-05-10T02:07:47;15.95;;;11.23;;
3613;SDS011;1821;50.936;6.854;2023-05-10T02:08:30;14.30;;;11.57;;
3613;SDS011;1821;50.936;6.854;2023-05-10T02:09:13;14.00;;;12.18;;
3613;SDS011;1821;50.936;6.854;2023-05-10T02:09:57;15.15;;;11.93;;
3613;SDS011;1821;50.936;6.854;2023-05-10T02:10:40;15.43;;;11.85;;
3613;SDS011;1821;50.936;6.854;2023-05-10T02:11:23;17.05;;;12.40;;
3613;SDS011;1821;50.936;6.854;2023-05-10T02:12:07;13.50;;;10.82;;
3613;SDS011;1821;50.936;6.854;2023-05-10T02:12:50;15.63;;;11.48;;
3613;SDS011;1821;50.936;6.854;2023-05-10T02:13:34;13.15;;;11.30;;
3613;SDS011;1821;50.936;6.854;2023-05-10T02:14:20;14.23;;;10.50;;
3613;SDS011;1821;50.936;6.854;2023-05-10T02:15:04;15.35;;;11.05;;
3613;SDS011;1821;50.936;6.854;2023-05-10T02:15:48;14.27;;;12.02;;
3613;SDS011;1821;50.936;6.854;2023-05-10T02:16:33;14.85;;;11.70;;
3613;SDS011;1821;50.936;6.854;2023-05-10T02:17:18;13.40;;;10.50;;
3613;SDS011;1821;50.936;6.854;2023-05-10T02:18:04;14.88;;;11.18;;
3613;SDS011;1821;50.936;6.854;2023-05-10T02:18:47;14.35;;;10.95;;
3613;SDS011;1821;50.936;6.854;2023-05-10T02:19:30;14.75;;;10.52;;
3613;SDS011;1821;50.936;6.854;2023-05-10T02:20:15;12.82;;;10.35;;
3613;SDS011;1821;50.936;6.854;2023-05-10T02:20:59;14.70;;;10.90;;
3613;SDS011;1821;50.936;6.854;2023-05-10T02:21:42;15.80;;;11.20;;
3613;SDS011;1821;50.936;6.854;2023-05-10T02:22:26;13.35;;;10.70;;
3613;SDS011;1821;50.936;6.854;2023-05-10T02:23:11;13.32;;;11.13;;
3613;SDS011;1821;50.936;6.854;2023-05-10T02:23:55;14.00;;;10.70;;
3613;SDS011;1821;50.936;6.854;2023-05-10T02:24:38;14.00;;;10.75;;
3613;SDS011;1821;50.936;6.854;2023-05-10T02:25:22;14.27;;;10.88;;
3613;SDS011;1821;50.936;6.854;2023-05-10T02:26:05;13.80;;;10.55;;
3613;SDS011;1821;50.936;6.854;2023-05-10T02:26:47;14.60;;;11.15;;
3613;SDS011;1821;50.936;6.854;2023-05-10T02:27:33;15.52;;;10.70;;
3613;SDS011;1821;50.936;6.854;2023-05-10T02:28:16;14.15;;;10.25;;
3613;SDS011;1821;50.936;6.854;2023-05-10T02:28:59;13.23;;;10.70;;
3613;SDS011;1821;50.936;6.854;2023-05-10T02:29:44;13.43;;;10.00;;
3613;SDS011;1821;50.936;6.854;2023-05-10T02:30:28;14.02;;;10.60;;
3613;SDS011;1821;50.936;6.854;2023-05-10T02:31:14;13.10;;;10.55;;
3613;SDS011;1821;50.936;6.854;2023-05-10T02:31:57;14.15;;;10.50;;
3613;SDS011;1821;50.936;6.854;2023-05-10T02:32:39;13.05;;;10.10;;
3613;SDS011;1821;50.936;6.854;2023-05-10T02:33:23;12.88;;;10.35;;
3613;SDS011;1821;50.936;6.854;2023-05-10T02:34:05;13.98;;;10.82;;
3613;SDS011;1821;50.936;6.854;2023-05-10T02:34:49;15.98;;;10.57;;
3613;SDS011;1821;50.936;6.854;2023-05-10T02:35:33;14.35;;;10.10;;
3613;SDS011;1821;50.936;6.854;2023-05-10T02:36:16;12.80;;;9.95;;
3613;SDS011;1821;50.936;6.854;2023-05-10T02:36:58;13.27;;;9.90;;
3613;SDS011;1821;50.936;6.854;2023-05-10T02:37:41;12.48;;;9.57;;
3613;SDS011;1821;50.936;6.854;2023-05-10T02:38:28;11.43;;;9.32;;
3613;SDS011;1821;50.936;6.854;2023-05-10T02:39:14;11.05;;;9.82;;
3613;SDS011;1821;50.936;6.854;2023-05-10T02:39:58;11.82;;;9.48;;
3613;SDS011;1821;50.936;6.854;2023-05-10T02:40:43;11.70;;;9.60;;
3613;SDS011;1821;50.936;6.854;2023-05-10T02:41:30;11.73;;;9.43;;
3613;SDS011;1821;50.936;6.854;2023-05-10T02:42:16;11.68;;;9.40;;
3613;SDS011;1821;50.936;6.854;2023-05-10T02:43:01;11.90;;;9.60;;
3613;SDS011;1821;50.936;6.854;2023-05-10T02:43:45;12.15;;;9.40;;
3613;SDS011;1821;50.936;6.854;2023-05-10T02:44:28;11.07;;;8.68;;
3613;SDS011;1821;50.936;6.854;2023-05-10T02:45:14;11.50;;;8.93;;
3613;SDS011;1821;50.936;6.854;2023-05-10T02:45:59;11.10;;;9.63;;
3613;SDS011;1821;50.936;6.854;2023-05-10T02:46:41;11.95;;;9.50;;
3613;SDS011;1821;50.936;6.854;2023-05-10T02:47:24;11.43;;;9.70;;
3613;SDS011;1821;50.936;6.854;2023-05-10T02:48:06;11.05;;;8.98;;
3613;SDS011;1821;50.936;6.854;2023-05-10T02:48:49;11.35;;;9.68;;
3613;SDS011;1821;50.936;6.854;2023-05-10T02:49:31;10.48;;;9.38;;
3613;SDS011;1821;50.936;6.854;2023-05-10T02:50:13;9.93;;;8.50;;
3613;SDS011;1821;50.936;6.854;2023-05-10T02:50:59;9.68;;;8.27;;
3613;SDS011;1821;50.936;6.854;2023-05-10T02:51:47;10.02;;;8.32;;
3613;SDS011;1821;50.936;6.854;2023-05-10T02:52:40;10.95;;;8.15;;
3613;SDS011;1821;50.936;6.854;2023-05-10T02:53:30;10.88;;;9.13;;
3613;SDS011;1821;50.936;6.854;2023-05-10T02:54:20;11.77;;;9.70;;
3613;SDS011;1821;50.936;6.854;2023-05-10T02:55:09;11.23;;;8.75;;
3613;SDS011;1821;50.936;6.854;2023-05-10T02:55:53;10.73;;;8.65;;
3613;SDS011;1821;50.936;6.854;2023-05-10T02:56:42;12.27;;;9.50;;
3613;SDS011;1821;50.936;6.854;2023-05-10T02:57:31;11.18;;;8.70;;
3613;SDS011;1821;50.936;6.854;2023-05-10T02:58:15;11.55;;;8.48;;
3613;SDS011;1821;50.936;6.854;2023-05-10T02:58:57;10.43;;;8.90;;
3613;SDS011;1821;50.936;6.854;2023-05-10T02:59:39;11.85;;;9.60;;
3613;SDS011;1821;50.936;6.854;2023-05-10T03:00:21;11.30;;;9.18;;
3613;SDS011;1821;50.936;6.854;2023-05-10T03:01:03;10.02;;;8.27;;
3613;SDS011;1821;50.936;6.854;2023-05-10T03:01:45;10.07;;;8.73;;
3613;SDS011;1821;50.936;6.854;2023-05-10T03:02:27;10.60;;;8.43;;
3613;SDS011;1821;50.936;6.854;2023-05-10T03:03:14;11.27;;;8.70;;
3613;SDS011;1821;50.936;6.854;2023-05-10T03:03:55;11.35;;;9.05;;
3613;SDS011;1821;50.936;6.854;2023-05-10T03:04:38;10.70;;;8.90;;
3613;SDS011;1821;50.936;6.854;2023-05-10T03:05:20;11.00;;;9.30;;
3613;SDS011;1821;50.936;6.854;2023-05-10T03:06:02;11.25;;;9.40;;
3613;SDS011;1821;50.936;6.854;2023-05-10T03:06:44;10.82;;;8.65;;
3613;SDS011;1821;50.936;6.854;2023-05-10T03:07:26;11.20;;;8.63;;
3613;SDS011;1821;50.936;6.854;2023-05-10T03:08:08;11.52;;;8.82;;
3613;SDS011;1821;50.936;6.854;2023-05-10T03:08:50;12.50;;;9.35;;
3613;SDS011;1821;50.936;6.854;2023-05-10T03:09:32;15.65;;;9.13;;
3613;SDS011;1821;50.936;6.854;2023-05-10T03:10:14;12.98;;;8.88;;
3613;SDS011;1821;50.936;6.854;2023-05-10T03:11:04;11.20;;;8.63;;
3613;SDS011;1821;50.936;6.854;2023-05-10T03:11:57;10.95;;;8.70;;
3613;SDS011;1821;50.936;6.854;2023-05-10T03:15:31;10.30;;;8.55;;
3613;SDS011;1821;50.936;6.854;2023-05-10T03:17:09;12.05;;;8.25;;
3613;SDS011;1821;50.936;6.854;2023-05-10T03:17:55;12.05;;;8.90;;
3613;SDS011;1821;50.936;6.854;2023-05-10T03:18:50;12.52;;;8.70;;
3613;SDS011;1821;50.936;6.854;2023-05-10T03:19:43;11.93;;;9.35;;
3613;SDS011;1821;50.936;6.854;2023-05-10T03:20:47;13.52;;;10.30;;
3613;SDS011;1821;50.936;6.854;2023-05-10T03:21:32;11.57;;;9.85;;
3613;SDS011;1821;50.936;6.854;2023-05-10T03:22:24;15.38;;;10.80;;
3613;SDS011;1821;50.936;6.854;2023-05-10T03:23:30;13.77;;;10.40;;
3613;SDS011;1821;50.936;6.854;2023-05-10T03:24:24;12.95;;;9.68;;
3613;SDS011;1821;50.936;6.854;2023-05-10T03:25:10;12.88;;;10.40;;
3613;SDS011;1821;50.936;6.854;2023-05-10T03:25:53;13.25;;;10.40;;
3613;SDS011;1821;50.936;6.854;2023-05-10T03:26:35;12.88;;;10.27;;
3613;SDS011;1821;50.936;6.854;2023-05-10T03:27:19;13.55;;;10.15;;
3613;SDS011;1821;50.936;6.854;2023-05-10T03:28:05;15.35;;;10.95;;
3613;SDS011;1821;50.936;6.854;2023-05-10T03:28:49;14.15;;;11.02;;
3613;SDS011;1821;50.936;6.854;2023-05-10T03:29:32;14.20;;;10.80;;
3613;SDS011;1821;50.936;6.854;2023-05-10T03:30:14;14.30;;;11.07;;
3613;SDS011;1821;50.936;6.854;2023-05-10T03:30:58;13.48;;;11.07;;
3613;SDS011;1821;50.936;6.854;2023-05-10T03:31:41;13.25;;;11.05;;
3613;SDS011;1821;50.936;6.854;2023-05-10T03:32:23;12.23;;;10.73;;
3613;SDS011;1821;50.936;6.854;2023-05-10T03:33:05;14.30;;;12.35;;
3613;SDS011;1821;50.936;6.854;2023-05-10T03:33:48;15.60;;;11.77;;
3613;SDS011;1821;50.936;6.854;2023-05-10T03:34:31;17.45;;;11.90;;
3613;SDS011;1821;50.936;6.854;2023-05-10T03:35:13;18.02;;;12.38;;
3613;SDS011;1821;50.936;6.854;2023-05-10T03:35:55;14.77;;;11.55;;
3613;SDS011;1821;50.936;6.854;2023-05-10T03:36:38;15.25;;;11.55;;
3613;SDS011;1821;50.936;6.854;2023-05-10T03:37:19;13.77;;;10.43;;
3613;SDS011;1821;50.936;6.854;2023-05-10T03:38:04;12.57;;;11.15;;
3613;SDS011;1821;50.936;6.854;2023-05-10T03:38:48;14.80;;;11.27;;
3613;SDS011;1821;50.936;6.854;2023-05-10T03:39:30;17.77;;;11.10;;
3613;SDS011;1821;50.936;6.854;2023-05-10T03:40:12;15.20;;;11.68;;
3613;SDS011;1821;50.936;6.854;2023-05-10T03:40:55;15.32;;;12.15;;
3613;SDS011;1821;50.936;6.854;2023-05-10T03:41:37;14.38;;;12.15;;
3613;SDS011;1821;50.936;6.854;2023-05-10T03:42:19;16.63;;;12.27;;
3613;SDS011;1821;50.936;6.854;2023-05-10T03:43:02;17.65;;;12.00;;
3613;SDS011;1821;50.936;6.854;2023-05-10T03:43:43;15.15;;;11.80;;
3613;SDS011;1821;50.936;6.854;2023-05-10T03:44:27;12.90;;;10.65;;
3613;SDS011;1821;50.936;6.854;2023-05-10T03:45:09;13.32;;;11.10;;
3613;SDS011;1821;50.936;6.854;2023-05-10T03:45:54;12.55;;;10.73;;
3613;SDS011;1821;50.936;6.854;2023-05-10T03:46:38;12.95;;;11.00;;
3613;SDS011;1821;50.936;6.854;2023-05-10T03:47:20;14.70;;;12.27;;
3613;SDS011;1821;50.936;6.854;2023-05-10T03:48:02;14.00;;;11.63;;
3613;SDS011;1821;50.936;6.854;2023-05-10T03:48:44;14.32;;;12.02;;
3613;SDS011;1821;50.936;6.854;2023-05-10T03:49:26;14.52;;;12.30;;
3613;SDS011;1821;50.936;6.854;2023-05-10T03:50:08;15.00;;;11.85;;
3613;SDS011;1821;50.936;6.854;2023-05-10T03:50:51;14.95;;;11.48;;
3613;SDS011;1821;50.936;6.854;2023-05-10T03:51:33;14.27;;;11.82;;
3613;SDS011;1821;50.936;6.854;2023-05-10T03:52:15;15.30;;;12.30;;
3613;SDS011;1821;50.936;6.854;2023-05-10T03:52:57;15.68;;;11.85;;
3613;SDS011;1821;50.936;6.854;2023-05-10T03:53:39;14.57;;;11.77;;
3613;SDS011;1821;50.936;6.854;2023-05-10T03:54:22;16.27;;;11.75;;
3613;SDS011;1821;50.936;6.854;2023-05-10T03:55:05;16.05;;;11.70;;
3613;SDS011;1821;50.936;6.854;2023-05-10T03:55:47;13.85;;;11.48;;
3613;SDS011;1821;50.936;6.854;2023-05-10T03:56:29;14.18;;;12.63;;
3613;SDS011;1821;50.936;6.854;2023-05-10T03:57:11;13.38;;;11.90;;
3613;SDS011;1821;50.936;6.854;2023-05-10T03:57:53;14.23;;;11.30;;
3613;SDS011;1821;50.936;6.854;2023-05-10T03:58:35;13.13;;;11.38;;
3613;SDS011;1821;50.936;6.854;2023-05-10T03:59:17;13.60;;;11.15;;
3613;SDS011;1821;50.936;6.854;2023-05-10T04:00:00;14.07;;;11.10;;
3613;SDS011;1821;50.936;6.854;2023-05-10T04:00:42;14.15;;;11.10;;
3613;SDS011;1821;50.936;6.854;2023-05-10T04:01:29;16.83;;;12.20;;
3613;SDS011;1821;50.936;6.854;2023-05-10T04:02:11;18.50;;;12.50;;
3613;SDS011;1821;50.936;6.854;2023-05-10T04:02:54;17.95;;;12.88;;
3613;SDS011;1821;50.936;6.854;2023-05-10T04:03:38;17.75;;;13.20;;
3613;SDS011;1821;50.936;6.854;2023-05-10T04:04:20;18.00;;;13.38;;
3613;SDS011;1821;50.936;6.854;2023-05-10T04:05:03;19.90;;;14.32;;
3613;SDS011;1821;50.936;6.854;2023-05-10T04:05:45;18.50;;;14.20;;
3613;SDS011;1821;50.936;6.854;2023-05-10T04:06:27;15.45;;;12.68;;
3613;SDS011;1821;50.936;6.854;2023-05-10T04:07:09;15.55;;;12.65;;
3613;SDS011;1821;50.936;6.854;2023-05-10T04:07:51;18.23;;;12.80;;
3613;SDS011;1821;50.936;6.854;2023-05-10T04:08:33;16.70;;;12.93;;
3613;SDS011;1821;50.936;6.854;2023-05-10T04:09:15;17.05;;;12.70;;
3613;SDS011;1821;50.936;6.854;2023-05-10T04:09:58;16.35;;;12.68;;
3613;SDS011;1821;50.936;6.854;2023-05-10T04:10:40;17.15;;;13.40;;
3613;SDS011;1821;50.936;6.854;2023-05-10T04:11:22;20.65;;;13.15;;
3613;SDS011;1821;50.936;6.854;2023-05-10T04:12:06;19.45;;;12.20;;
3613;SDS011;1821;50.936;6.854;2023-05-10T04:12:51;15.53;;;11.70;;
3613;SDS011;1821;50.936;6.854;2023-05-10T04:13:33;18.05;;;12.07;;
3613;SDS011;1821;50.936;6.854;2023-05-10T04:14:18;14.45;;;10.93;;
3613;SDS011;1821;50.936;6.854;2023-05-10T04:15:00;16.00;;;11.98;;
3613;SDS011;1821;50.936;6.854;2023-05-10T04:15:42;17.25;;;12.50;;
3613;SDS011;1821;50.936;6.854;2023-05-10T04:16:24;15.65;;;12.90;;
3613;SDS011;1821;50.936;6.854;2023-05-10T04:17:07;15.93;;;12.43;;
3613;SDS011;1821;50.936;6.854;2023-05-10T04:17:49;18.27;;;13.00;;
3613;SDS011;1821;50.936;6.854;2023-05-10T04:18:32;17.80;;;12.50;;
3613;SDS011;1821;50.936;6.854;2023-05-10T04:19:14;16.60;;;12.48;;
3613;SDS011;1821;50.936;6.854;2023-05-10T04:19:56;15.63;;;12.68;;
3613;SDS011;1821;50.936;6.854;2023-05-10T04:20:39;16.60;;;13.40;;
3613;SDS011;1821;50.936;6.854;2023-05-10T04:21:23;19.25;;;12.90;;
3613;SDS011;1821;50.936;6.854;2023-05-10T04:22:05;16.50;;;12.45;;
3613;SDS011;1821;50.936;6.854;2023-05-10T04:22:47;18.92;;;13.80;;
3613;SDS011;1821;50.936;6.854;2023-05-10T04:23:29;17.83;;;13.63;;
3613;SDS011;1821;50.936;6.854;2023-05-10T04:24:13;16.02;;;13.55;;
3613;SDS011;1821;50.936;6.854;2023-05-10T04:24:55;15.75;;;13.27;;
3613;SDS011;1821;50.936;6.854;2023-05-10T04:25:37;19.90;;;14.25;;
3613;SDS011;1821;50.936;6.854;2023-05-10T04:26:19;18.95;;;14.52;;
3613;SDS011;1821;50.936;6.854;2023-05-10T04:27:01;17.52;;;14.75;;
3613;SDS011;1821;50.936;6.854;2023-05-10T04:27:43;17.90;;;14.52;;
3613;SDS011;1821;50.936;6.854;2023-05-10T04:28:26;20.30;;;15.35;;
3613;SDS011;1821;50.936;6.854;2023-05-10T04:29:08;21.92;;;15.35;;
3613;SDS011;1821;50.936;6.854;2023-05-10T04:29:50;23.25;;;15.60;;
3613;SDS011;1821;50.936;6.854;2023-05-10T04:30:32;20.92;;;15.43;;
3613;SDS011;1821;50.936;6.854;2023-05-10T04:31:14;19.20;;;14.90;;
3613;SDS011;1821;50.936;6.854;2023-05-10T04:31:56;16.88;;;13.75;;
3613;SDS011;1821;50.936;6.854;2023-05-10T04:32:38;19.52;;;14.77;;
3613;SDS011;1821;50.936;6.854;2023-05-10T04:33:20;19.80;;;15.52;;
3613;SDS011;1821;50.936;6.854;2023-05-10T04:34:02;19.35;;;15.18;;
3613;SDS011;1821;50.936;6.854;2023-05-10T04:34:44;18.38;;;14.48;;
3613;SDS011;1821;50.936;6.854;2023-05-10T04:35:28;19.83;;;15.70;;
3613;SDS011;1821;50.936;6.854;2023-05-10T04:36:10;23.23;;;16.10;;
3613;SDS011;1821;50.936;6.854;2023-05-10T04:36:52;22.42;;;15.30;;
3613;SDS011;1821;50.936;6.854;2023-05-10T04:37:34;20.33;;;15.48;;
3613;SDS011;1821;50.936;6.854;2023-05-10T04:38:17;17.23;;;15.15;;
3613;SDS011;1821;50.936;6.854;2023-05-10T04:38:59;21.85;;;15.98;;
3613;SDS011;1821;50.936;6.854;2023-05-10T04:39:41;22.42;;;15.77;;
3613;SDS011;1821;50.936;6.854;2023-05-10T04:40:23;22.10;;;15.27;;
3613;SDS011;1821;50.936;6.854;2023-05-10T04:41:06;23.52;;;15.13;;
3613;SDS011;1821;50.936;6.854;2023-05-10T04:41:49;22.42;;;16.48;;
3613;SDS011;1821;50.936;6.854;2023-05-10T04:42:33;22.08;;;16.02;;